sensor_id;sensor_type;location;lat;lon;timestamp;P1;durP1;ratioP1;P2;durP2;ratioP2
18176;SDS011;9213;50.858;3.964;2023-02-15T00:01:45;120.40;;;62.03;;
18176;SDS011;9213;50.858;3.964;2023-02-15T00:04:13;127.87;;;63.33;;
18176;SDS011;9213;50.858;3.964;2023-02-15T00:06:42;116.70;;;60.40;;
18176;SDS011;9213;50.858;3.964;2023-02-15T00:09:09;116.93;;;59.67;;
18176;SDS011;9213;50.858;3.964;2023-02-15T00:11:37;122.37;;;63.57;;
18176;SDS011;9213;50.858;3.964;2023-02-15T00:14:08;123.17;;;62.70;;
18176;SDS011;9213;50.858;3.964;2023-02-15T00:16:37;127.47;;;63.03;;
18176;SDS011;9213;50.858;3.964;2023-02-15T00:19:06;115.17;;;59.20;;
18176;SDS011;9213;50.858;3.964;2023-02-15T00:21:33;113.30;;;58.10;;
18176;SDS011;9213;50.858;3.964;2023-02-15T00:24:02;113.37;;;57.57;;
18176;SDS011;9213;50.858;3.964;2023-02-15T00:26:30;109.43;;;56.80;;
18176;SDS011;9213;50.858;3.964;2023-02-15T00:28:57;112.10;;;56.77;;
18176;SDS011;9213;50.858;3.964;2023-02-15T00:31:25;107.07;;;55.77;;
18176;SDS011;9213;50.858;3.964;2023-02-15T00:33:53;110.20;;;56.07;;
18176;SDS011;9213;50.858;3.964;2023-02-15T00:36:21;134.00;;;64.97;;
18176;SDS011;9213;50.858;3.964;2023-02-15T00:38:48;119.07;;;60.63;;
18176;SDS011;9213;50.858;3.964;2023-02-15T00:41:15;121.17;;;61.27;;
18176;SDS011;9213;50.858;3.964;2023-02-15T00:43:42;120.10;;;61.10;;
18176;SDS011;9213;50.858;3.964;2023-02-15T00:46:08;116.80;;;58.50;;
18176;SDS011;9213;50.858;3.964;2023-02-15T00:48:35;114.67;;;58.27;;
18176;SDS011;9213;50.858;3.964;2023-02-15T00:51:02;124.00;;;61.20;;
18176;SDS011;9213;50.858;3.964;2023-02-15T00:53:31;118.40;;;59.97;;
18176;SDS011;9213;50.858;3.964;2023-02-15T00:55:58;118.73;;;60.17;;
18176;SDS011;9213;50.858;3.964;2023-02-15T00:58:25;132.30;;;60.80;;
18176;SDS011;9213;50.858;3.964;2023-02-15T01:00:52;114.50;;;58.30;;
18176;SDS011;9213;50.858;3.964;2023-02-15T01:03:20;120.80;;;59.37;;
18176;SDS011;9213;50.858;3.964;2023-02-15T01:05:47;114.27;;;56.47;;
18176;SDS011;9213;50.858;3.964;2023-02-15T01:08:15;109.77;;;57.00;;
18176;SDS011;9213;50.858;3.964;2023-02-15T01:10:43;113.00;;;57.20;;
18176;SDS011;9213;50.858;3.964;2023-02-15T01:13:12;118.97;;;61.07;;
18176;SDS011;9213;50.858;3.964;2023-02-15T01:15:40;128.87;;;62.60;;
18176;SDS011;9213;50.858;3.964;2023-02-15T01:18:07;126.23;;;59.70;;
18176;SDS011;9213;50.858;3.964;2023-02-15T01:20:35;125.40;;;61.00;;
18176;SDS011;9213;50.858;3.964;2023-02-15T01:23:06;123.23;;;61.13;;
18176;SDS011;9213;50.858;3.964;2023-02-15T01:25:34;126.63;;;62.70;;
18176;SDS011;9213;50.858;3.964;2023-02-15T01:28:03;147.27;;;67.33;;
18176;SDS011;9213;50.858;3.964;2023-02-15T01:30:30;139.20;;;63.93;;
18176;SDS011;9213;50.858;3.964;2023-02-15T01:32:58;126.63;;;63.30;;
18176;SDS011;9213;50.858;3.964;2023-02-15T01:35:25;126.97;;;61.70;;
18176;SDS011;9213;50.858;3.964;2023-02-15T01:37:53;133.00;;;62.63;;
18176;SDS011;9213;50.858;3.964;2023-02-15T01:40:20;133.67;;;61.67;;
18176;SDS011;9213;50.858;3.964;2023-02-15T01:42:49;136.80;;;63.70;;
18176;SDS011;9213;50.858;3.964;2023-02-15T01:45:23;125.47;;;61.67;;
18176;SDS011;9213;50.858;3.964;2023-02-15T01:47:52;121.60;;;59.33;;
18176;SDS011;9213;50.858;3.964;2023-02-15T01:50:25;123.73;;;59.40;;
18176;SDS011;9213;50.858;3.964;2023-02-15T01:52:58;132.33;;;61.43;;
18176;SDS011;9213;50.858;3.964;2023-02-15T01:55:30;125.73;;;61.03;;
18176;SDS011;9213;50.858;3.964;2023-02-15T01:58:02;128.47;;;59.30;;
18176;SDS011;9213;50.858;3.964;2023-02-15T02:00:30;120.73;;;58.60;;
18176;SDS011;9213;50.858;3.964;2023-02-15T02:02:58;127.27;;;59.00;;
18176;SDS011;9213;50.858;3.964;2023-02-15T02:05:27;130.33;;;59.73;;
18176;SDS011;9213;50.858;3.964;2023-02-15T02:07:56;139.13;;;62.07;;
18176;SDS011;9213;50.858;3.964;2023-02-15T02:10:25;152.07;;;69.33;;
18176;SDS011;9213;50.858;3.964;2023-02-15T02:12:54;124.60;;;62.40;;
18176;SDS011;9213;50.858;3.964;2023-02-15T02:15:23;128.33;;;59.37;;
18176;SDS011;9213;50.858;3.964;2023-02-15T02:17:59;130.90;;;59.87;;
18176;SDS011;9213;50.858;3.964;2023-02-15T02:20:43;143.30;;;63.53;;
18176;SDS011;9213;50.858;3.964;2023-02-15T02:23:34;133.03;;;61.97;;
18176;SDS011;9213;50.858;3.964;2023-02-15T02:32:44;125.93;;;60.90;;
18176;SDS011;9213;50.858;3.964;2023-02-15T02:35:28;220.83;;;56.87;;
18176;SDS011;9213;50.858;3.964;2023-02-15T02:38:00;118.30;;;56.83;;
18176;SDS011;9213;50.858;3.964;2023-02-15T02:40:38;119.97;;;59.07;;
18176;SDS011;9213;50.858;3.964;2023-02-15T02:43:15;122.20;;;59.30;;
18176;SDS011;9213;50.858;3.964;2023-02-15T02:45:48;127.53;;;61.63;;
18176;SDS011;9213;50.858;3.964;2023-02-15T02:48:21;123.80;;;58.07;;
18176;SDS011;9213;50.858;3.964;2023-02-15T02:50:50;123.87;;;59.77;;
18176;SDS011;9213;50.858;3.964;2023-02-15T02:53:17;106.17;;;56.60;;
18176;SDS011;9213;50.858;3.964;2023-02-15T02:55:45;116.33;;;57.20;;
18176;SDS011;9213;50.858;3.964;2023-02-15T02:58:16;118.10;;;56.70;;
18176;SDS011;9213;50.858;3.964;2023-02-15T03:00:48;125.77;;;59.40;;
18176;SDS011;9213;50.858;3.964;2023-02-15T03:03:20;131.03;;;61.53;;
18176;SDS011;9213;50.858;3.964;2023-02-15T03:05:51;126.20;;;59.93;;
18176;SDS011;9213;50.858;3.964;2023-02-15T03:08:21;136.47;;;61.07;;
18176;SDS011;9213;50.858;3.964;2023-02-15T03:10:54;134.77;;;61.80;;
18176;SDS011;9213;50.858;3.964;2023-02-15T03:13:24;201.93;;;59.20;;
18176;SDS011;9213;50.858;3.964;2023-02-15T03:15:51;144.33;;;61.43;;
18176;SDS011;9213;50.858;3.964;2023-02-15T03:18:40;160.90;;;58.43;;
18176;SDS011;9213;50.858;3.964;2023-02-15T03:21:17;127.23;;;58.53;;
18176;SDS011;9213;50.858;3.964;2023-02-15T03:23:48;115.37;;;55.60;;
18176;SDS011;9213;50.858;3.964;2023-02-15T03:26:19;107.40;;;55.57;;
18176;SDS011;9213;50.858;3.964;2023-02-15T03:28:48;113.27;;;55.43;;
18176;SDS011;9213;50.858;3.964;2023-02-15T03:31:17;104.10;;;53.77;;
18176;SDS011;9213;50.858;3.964;2023-02-15T03:33:50;110.30;;;55.97;;
18176;SDS011;9213;50.858;3.964;2023-02-15T03:36:22;113.60;;;55.13;;
18176;SDS011;9213;50.858;3.964;2023-02-15T03:38:57;120.27;;;56.27;;
18176;SDS011;9213;50.858;3.964;2023-02-15T03:41:37;119.23;;;56.43;;
18176;SDS011;9213;50.858;3.964;2023-02-15T03:44:13;124.00;;;54.77;;
18176;SDS011;9213;50.858;3.964;2023-02-15T03:46:43;126.57;;;56.47;;
18176;SDS011;9213;50.858;3.964;2023-02-15T03:49:17;113.73;;;54.17;;
18176;SDS011;9213;50.858;3.964;2023-02-15T03:51:50;111.30;;;52.67;;
18176;SDS011;9213;50.858;3.964;2023-02-15T03:54:20;117.27;;;53.57;;
18176;SDS011;9213;50.858;3.964;2023-02-15T03:57:12;112.20;;;51.63;;
18176;SDS011;9213;50.858;3.964;2023-02-15T03:59:59;114.97;;;50.60;;
18176;SDS011;9213;50.858;3.964;2023-02-15T04:02:49;116.87;;;51.30;;
18176;SDS011;9213;50.858;3.964;2023-02-15T04:05:25;117.53;;;51.97;;
18176;SDS011;9213;50.858;3.964;2023-02-15T04:07:51;114.40;;;51.87;;
18176;SDS011;9213;50.858;3.964;2023-02-15T04:10:18;116.20;;;53.53;;
18176;SDS011;9213;50.858;3.964;2023-02-15T04:13:14;109.53;;;50.77;;
18176;SDS011;9213;50.858;3.964;2023-02-15T04:15:41;108.20;;;49.83;;
18176;SDS011;9213;50.858;3.964;2023-02-15T04:18:26;103.73;;;49.27;;
18176;SDS011;9213;50.858;3.964;2023-02-15T04:21:11;110.97;;;51.47;;
18176;SDS011;9213;50.858;3.964;2023-02-15T04:23:56;107.13;;;52.07;;
18176;SDS011;9213;50.858;3.964;2023-02-15T04:26:40;110.10;;;50.47;;
18176;SDS011;9213;50.858;3.964;2023-02-15T04:29:07;112.33;;;52.77;;
18176;SDS011;9213;50.858;3.964;2023-02-15T04:31:34;110.63;;;52.10;;
18176;SDS011;9213;50.858;3.964;2023-02-15T04:34:01;103.23;;;50.07;;
18176;SDS011;9213;50.858;3.964;2023-02-15T04:36:29;111.73;;;49.63;;
18176;SDS011;9213;50.858;3.964;2023-02-15T04:38:56;97.80;;;49.43;;
18176;SDS011;9213;50.858;3.964;2023-02-15T04:41:23;109.17;;;50.17;;
18176;SDS011;9213;50.858;3.964;2023-02-15T04:43:50;108.37;;;49.67;;
18176;SDS011;9213;50.858;3.964;2023-02-15T04:46:17;99.33;;;49.80;;
18176;SDS011;9213;50.858;3.964;2023-02-15T04:48:43;111.27;;;50.60;;
18176;SDS011;9213;50.858;3.964;2023-02-15T04:51:10;115.73;;;53.67;;
18176;SDS011;9213;50.858;3.964;2023-02-15T04:53:39;110.83;;;52.17;;
18176;SDS011;9213;50.858;3.964;2023-02-15T04:56:06;104.00;;;50.37;;
18176;SDS011;9213;50.858;3.964;2023-02-15T04:58:33;94.67;;;48.37;;
18176;SDS011;9213;50.858;3.964;2023-02-15T05:01:01;104.53;;;49.63;;
18176;SDS011;9213;50.858;3.964;2023-02-15T05:03:28;100.57;;;51.20;;
18176;SDS011;9213;50.858;3.964;2023-02-15T05:05:55;81.83;;;46.43;;
18176;SDS011;9213;50.858;3.964;2023-02-15T05:08:22;100.17;;;49.07;;
18176;SDS011;9213;50.858;3.964;2023-02-15T05:10:50;97.00;;;49.00;;
18176;SDS011;9213;50.858;3.964;2023-02-15T05:13:17;98.20;;;50.17;;
18176;SDS011;9213;50.858;3.964;2023-02-15T05:15:46;106.47;;;50.20;;
18176;SDS011;9213;50.858;3.964;2023-02-15T05:18:14;108.00;;;51.70;;
18176;SDS011;9213;50.858;3.964;2023-02-15T05:20:42;109.60;;;49.07;;
18176;SDS011;9213;50.858;3.964;2023-02-15T05:23:09;103.20;;;50.37;;
18176;SDS011;9213;50.858;3.964;2023-02-15T05:25:36;104.10;;;50.53;;
18176;SDS011;9213;50.858;3.964;2023-02-15T05:28:21;97.03;;;48.67;;
18176;SDS011;9213;50.858;3.964;2023-02-15T05:30:50;103.83;;;49.60;;
18176;SDS011;9213;50.858;3.964;2023-02-15T05:33:19;92.17;;;48.03;;
18176;SDS011;9213;50.858;3.964;2023-02-15T05:35:46;101.10;;;48.83;;
18176;SDS011;9213;50.858;3.964;2023-02-15T05:38:13;91.27;;;46.47;;
18176;SDS011;9213;50.858;3.964;2023-02-15T05:40:40;97.63;;;49.13;;
18176;SDS011;9213;50.858;3.964;2023-02-15T05:43:07;95.57;;;48.47;;
18176;SDS011;9213;50.858;3.964;2023-02-15T05:45:35;100.37;;;47.90;;
18176;SDS011;9213;50.858;3.964;2023-02-15T05:48:02;99.30;;;47.50;;
18176;SDS011;9213;50.858;3.964;2023-02-15T05:50:29;108.67;;;50.47;;
18176;SDS011;9213;50.858;3.964;2023-02-15T05:52:56;97.93;;;48.60;;
18176;SDS011;9213;50.858;3.964;2023-02-15T05:55:23;100.47;;;47.73;;
18176;SDS011;9213;50.858;3.964;2023-02-15T05:57:49;93.90;;;48.03;;
18176;SDS011;9213;50.858;3.964;2023-02-15T06:00:17;89.63;;;45.93;;
18176;SDS011;9213;50.858;3.964;2023-02-15T06:02:45;107.50;;;51.23;;
18176;SDS011;9213;50.858;3.964;2023-02-15T06:05:12;110.50;;;53.23;;
18176;SDS011;9213;50.858;3.964;2023-02-15T06:07:39;109.23;;;52.77;;
18176;SDS011;9213;50.858;3.964;2023-02-15T06:10:09;107.07;;;52.83;;
18176;SDS011;9213;50.858;3.964;2023-02-15T06:12:36;106.00;;;53.83;;
18176;SDS011;9213;50.858;3.964;2023-02-15T06:15:03;103.63;;;51.23;;
18176;SDS011;9213;50.858;3.964;2023-02-15T06:17:31;114.53;;;52.13;;
18176;SDS011;9213;50.858;3.964;2023-02-15T06:20:00;104.67;;;52.23;;
18176;SDS011;9213;50.858;3.964;2023-02-15T06:22:27;107.00;;;52.33;;
18176;SDS011;9213;50.858;3.964;2023-02-15T06:24:54;107.63;;;51.17;;
18176;SDS011;9213;50.858;3.964;2023-02-15T06:27:21;102.47;;;50.33;;
18176;SDS011;9213;50.858;3.964;2023-02-15T06:29:48;99.60;;;48.23;;
18176;SDS011;9213;50.858;3.964;2023-02-15T06:32:15;97.30;;;46.13;;
18176;SDS011;9213;50.858;3.964;2023-02-15T06:34:42;100.30;;;47.57;;
18176;SDS011;9213;50.858;3.964;2023-02-15T06:37:10;95.53;;;46.20;;
18176;SDS011;9213;50.858;3.964;2023-02-15T06:39:37;94.80;;;46.37;;
18176;SDS011;9213;50.858;3.964;2023-02-15T06:42:04;88.73;;;45.53;;
18176;SDS011;9213;50.858;3.964;2023-02-15T06:44:31;88.17;;;45.87;;
18176;SDS011;9213;50.858;3.964;2023-02-15T06:46:57;86.07;;;45.63;;
18176;SDS011;9213;50.858;3.964;2023-02-15T06:49:24;90.43;;;47.40;;
18176;SDS011;9213;50.858;3.964;2023-02-15T06:51:51;99.00;;;49.27;;
18176;SDS011;9213;50.858;3.964;2023-02-15T06:54:20;88.10;;;46.93;;
18176;SDS011;9213;50.858;3.964;2023-02-15T06:56:46;88.43;;;46.57;;
18176;SDS011;9213;50.858;3.964;2023-02-15T06:59:13;89.33;;;46.07;;
18176;SDS011;9213;50.858;3.964;2023-02-15T07:01:40;84.93;;;45.27;;
18176;SDS011;9213;50.858;3.964;2023-02-15T07:04:07;81.50;;;44.13;;
18176;SDS011;9213;50.858;3.964;2023-02-15T07:06:34;87.77;;;44.07;;
18176;SDS011;9213;50.858;3.964;2023-02-15T07:09:01;95.60;;;45.27;;
18176;SDS011;9213;50.858;3.964;2023-02-15T07:11:30;91.80;;;45.37;;
18176;SDS011;9213;50.858;3.964;2023-02-15T07:14:15;78.10;;;43.43;;
18176;SDS011;9213;50.858;3.964;2023-02-15T07:16:41;92.50;;;45.83;;
18176;SDS011;9213;50.858;3.964;2023-02-15T07:19:08;92.73;;;44.83;;
18176;SDS011;9213;50.858;3.964;2023-02-15T07:21:35;93.17;;;47.20;;
18176;SDS011;9213;50.858;3.964;2023-02-15T07:24:03;84.80;;;45.13;;
18176;SDS011;9213;50.858;3.964;2023-02-15T07:26:32;81.33;;;42.90;;
18176;SDS011;9213;50.858;3.964;2023-02-15T07:28:59;78.07;;;43.07;;
18176;SDS011;9213;50.858;3.964;2023-02-15T07:31:26;81.20;;;41.97;;
18176;SDS011;9213;50.858;3.964;2023-02-15T07:33:53;73.97;;;41.57;;
18176;SDS011;9213;50.858;3.964;2023-02-15T07:36:20;73.33;;;41.60;;
18176;SDS011;9213;50.858;3.964;2023-02-15T07:38:47;72.10;;;39.97;;
18176;SDS011;9213;50.858;3.964;2023-02-15T07:41:14;75.63;;;40.77;;
18176;SDS011;9213;50.858;3.964;2023-02-15T07:43:43;73.97;;;38.90;;
18176;SDS011;9213;50.858;3.964;2023-02-15T07:46:11;72.90;;;39.67;;
18176;SDS011;9213;50.858;3.964;2023-02-15T07:48:40;74.30;;;40.80;;
18176;SDS011;9213;50.858;3.964;2023-02-15T07:51:09;68.23;;;38.70;;
18176;SDS011;9213;50.858;3.964;2023-02-15T07:53:37;75.10;;;41.10;;
18176;SDS011;9213;50.858;3.964;2023-02-15T07:56:05;68.53;;;37.87;;
18176;SDS011;9213;50.858;3.964;2023-02-15T07:58:33;74.60;;;39.23;;
18176;SDS011;9213;50.858;3.964;2023-02-15T08:01:22;72.10;;;38.10;;
18176;SDS011;9213;50.858;3.964;2023-02-15T08:03:50;73.70;;;41.30;;
18176;SDS011;9213;50.858;3.964;2023-02-15T08:06:17;71.17;;;38.23;;
18176;SDS011;9213;50.858;3.964;2023-02-15T08:08:44;72.37;;;38.47;;
18176;SDS011;9213;50.858;3.964;2023-02-15T08:11:15;76.27;;;40.20;;
18176;SDS011;9213;50.858;3.964;2023-02-15T08:13:59;72.60;;;38.80;;
18176;SDS011;9213;50.858;3.964;2023-02-15T08:16:31;73.00;;;40.27;;
18176;SDS011;9213;50.858;3.964;2023-02-15T08:19:01;76.30;;;39.77;;
18176;SDS011;9213;50.858;3.964;2023-02-15T08:21:30;75.60;;;39.93;;
18176;SDS011;9213;50.858;3.964;2023-02-15T08:23:58;74.17;;;39.53;;
18176;SDS011;9213;50.858;3.964;2023-02-15T08:26:26;66.37;;;37.40;;
18176;SDS011;9213;50.858;3.964;2023-02-15T08:28:54;61.63;;;35.40;;
18176;SDS011;9213;50.858;3.964;2023-02-15T08:31:22;59.83;;;34.63;;
18176;SDS011;9213;50.858;3.964;2023-02-15T08:33:51;58.57;;;33.50;;
18176;SDS011;9213;50.858;3.964;2023-02-15T08:36:20;59.80;;;33.30;;
18176;SDS011;9213;50.858;3.964;2023-02-15T08:38:48;59.27;;;34.57;;
18176;SDS011;9213;50.858;3.964;2023-02-15T08:41:16;62.03;;;34.10;;
18176;SDS011;9213;50.858;3.964;2023-02-15T08:43:45;59.13;;;34.23;;
18176;SDS011;9213;50.858;3.964;2023-02-15T08:46:13;56.43;;;33.43;;
18176;SDS011;9213;50.858;3.964;2023-02-15T08:48:42;56.00;;;32.87;;
18176;SDS011;9213;50.858;3.964;2023-02-15T08:51:11;54.63;;;33.07;;
18176;SDS011;9213;50.858;3.964;2023-02-15T08:53:39;53.07;;;32.97;;
18176;SDS011;9213;50.858;3.964;2023-02-15T08:56:08;58.37;;;33.07;;
18176;SDS011;9213;50.858;3.964;2023-02-15T08:58:35;56.63;;;32.57;;
18176;SDS011;9213;50.858;3.964;2023-02-15T09:01:07;58.57;;;34.37;;
18176;SDS011;9213;50.858;3.964;2023-02-15T09:03:36;51.57;;;32.47;;
18176;SDS011;9213;50.858;3.964;2023-02-15T09:06:02;56.33;;;32.77;;
18176;SDS011;9213;50.858;3.964;2023-02-15T09:08:31;57.90;;;33.43;;
18176;SDS011;9213;50.858;3.964;2023-02-15T09:11:08;52.97;;;32.87;;
18176;SDS011;9213;50.858;3.964;2023-02-15T09:13:36;54.93;;;32.17;;
18176;SDS011;9213;50.858;3.964;2023-02-15T09:16:04;51.53;;;30.30;;
18176;SDS011;9213;50.858;3.964;2023-02-15T09:18:33;52.33;;;31.50;;
18176;SDS011;9213;50.858;3.964;2023-02-15T09:21:08;49.47;;;30.30;;
18176;SDS011;9213;50.858;3.964;2023-02-15T09:23:39;50.70;;;31.03;;
18176;SDS011;9213;50.858;3.964;2023-02-15T09:26:08;57.17;;;30.53;;
18176;SDS011;9213;50.858;3.964;2023-02-15T09:28:37;55.30;;;30.37;;
18176;SDS011;9213;50.858;3.964;2023-02-15T09:31:11;49.63;;;30.90;;
18176;SDS011;9213;50.858;3.964;2023-02-15T09:33:40;50.40;;;30.80;;
18176;SDS011;9213;50.858;3.964;2023-02-15T09:36:13;48.10;;;29.50;;
18176;SDS011;9213;50.858;3.964;2023-02-15T09:38:44;51.70;;;29.57;;
18176;SDS011;9213;50.858;3.964;2023-02-15T09:41:21;45.83;;;29.43;;
18176;SDS011;9213;50.858;3.964;2023-02-15T09:44:00;49.17;;;30.63;;
18176;SDS011;9213;50.858;3.964;2023-02-15T09:46:42;45.87;;;28.77;;
18176;SDS011;9213;50.858;3.964;2023-02-15T09:49:23;42.03;;;27.93;;
18176;SDS011;9213;50.858;3.964;2023-02-15T09:52:05;47.10;;;29.13;;
18176;SDS011;9213;50.858;3.964;2023-02-15T09:55:06;40.97;;;27.33;;
18176;SDS011;9213;50.858;3.964;2023-02-15T09:57:43;47.57;;;28.60;;
18176;SDS011;9213;50.858;3.964;2023-02-15T10:00:16;47.80;;;28.23;;
18176;SDS011;9213;50.858;3.964;2023-02-15T10:05:46;40.97;;;28.70;;
18176;SDS011;9213;50.858;3.964;2023-02-15T10:08:39;43.70;;;27.80;;
18176;SDS011;9213;50.858;3.964;2023-02-15T10:11:25;47.30;;;29.20;;
18176;SDS011;9213;50.858;3.964;2023-02-15T10:17:04;40.37;;;26.97;;
18176;SDS011;9213;50.858;3.964;2023-02-15T10:19:44;45.20;;;28.70;;
18176;SDS011;9213;50.858;3.964;2023-02-15T10:22:19;43.77;;;27.63;;
18176;SDS011;9213;50.858;3.964;2023-02-15T10:24:58;39.03;;;25.77;;
18176;SDS011;9213;50.858;3.964;2023-02-15T10:27:39;42.33;;;28.37;;
18176;SDS011;9213;50.858;3.964;2023-02-15T10:30:11;45.33;;;27.97;;
18176;SDS011;9213;50.858;3.964;2023-02-15T10:32:39;41.07;;;27.27;;
18176;SDS011;9213;50.858;3.964;2023-02-15T10:35:20;40.00;;;27.40;;
18176;SDS011;9213;50.858;3.964;2023-02-15T10:37:59;39.70;;;26.97;;
18176;SDS011;9213;50.858;3.964;2023-02-15T10:40:46;41.23;;;26.87;;
18176;SDS011;9213;50.858;3.964;2023-02-15T10:43:30;37.20;;;25.73;;
18176;SDS011;9213;50.858;3.964;2023-02-15T10:46:17;42.00;;;27.37;;
18176;SDS011;9213;50.858;3.964;2023-02-15T10:48:56;43.07;;;26.37;;
18176;SDS011;9213;50.858;3.964;2023-02-15T10:51:39;39.63;;;26.63;;
18176;SDS011;9213;50.858;3.964;2023-02-15T10:54:21;37.00;;;25.80;;
18176;SDS011;9213;50.858;3.964;2023-02-15T10:57:00;43.10;;;26.27;;
18176;SDS011;9213;50.858;3.964;2023-02-15T11:02:32;40.77;;;27.63;;
18176;SDS011;9213;50.858;3.964;2023-02-15T11:05:32;40.73;;;26.33;;
18176;SDS011;9213;50.858;3.964;2023-02-15T11:08:08;38.87;;;25.97;;
18176;SDS011;9213;50.858;3.964;2023-02-15T11:10:38;42.57;;;27.90;;
18176;SDS011;9213;50.858;3.964;2023-02-15T11:13:09;41.33;;;26.83;;
18176;SDS011;9213;50.858;3.964;2023-02-15T11:15:42;42.57;;;27.13;;
18176;SDS011;9213;50.858;3.964;2023-02-15T11:18:13;39.37;;;26.97;;
18176;SDS011;9213;50.858;3.964;2023-02-15T11:20:48;39.50;;;26.63;;
18176;SDS011;9213;50.858;3.964;2023-02-15T11:23:19;39.50;;;25.67;;
18176;SDS011;9213;50.858;3.964;2023-02-15T11:25:52;39.03;;;25.13;;
18176;SDS011;9213;50.858;3.964;2023-02-15T11:28:24;40.50;;;26.33;;
18176;SDS011;9213;50.858;3.964;2023-02-15T11:30:57;41.63;;;25.87;;
18176;SDS011;9213;50.858;3.964;2023-02-15T11:33:29;39.63;;;26.73;;
18176;SDS011;9213;50.858;3.964;2023-02-15T11:36:02;43.43;;;27.73;;
18176;SDS011;9213;50.858;3.964;2023-02-15T11:38:32;43.80;;;27.80;;
18176;SDS011;9213;50.858;3.964;2023-02-15T11:41:01;41.07;;;26.93;;
18176;SDS011;9213;50.858;3.964;2023-02-15T11:43:30;41.87;;;26.57;;
18176;SDS011;9213;50.858;3.964;2023-02-15T11:46:04;40.93;;;26.60;;
18176;SDS011;9213;50.858;3.964;2023-02-15T11:48:32;41.47;;;27.73;;
18176;SDS011;9213;50.858;3.964;2023-02-15T11:50:59;37.50;;;25.77;;
18176;SDS011;9213;50.858;3.964;2023-02-15T11:53:28;42.20;;;27.73;;
18176;SDS011;9213;50.858;3.964;2023-02-15T11:55:59;46.63;;;28.90;;
18176;SDS011;9213;50.858;3.964;2023-02-15T11:58:29;45.17;;;28.47;;
18176;SDS011;9213;50.858;3.964;2023-02-15T12:01:07;39.97;;;27.50;;
18176;SDS011;9213;50.858;3.964;2023-02-15T12:03:47;44.63;;;27.97;;
18176;SDS011;9213;50.858;3.964;2023-02-15T12:06:18;44.93;;;29.07;;
18176;SDS011;9213;50.858;3.964;2023-02-15T12:08:59;43.47;;;28.23;;
18176;SDS011;9213;50.858;3.964;2023-02-15T12:11:33;43.90;;;28.83;;
18176;SDS011;9213;50.858;3.964;2023-02-15T12:14:03;48.00;;;28.93;;
18176;SDS011;9213;50.858;3.964;2023-02-15T12:16:34;41.73;;;28.83;;
18176;SDS011;9213;50.858;3.964;2023-02-15T12:19:12;43.20;;;28.30;;
18176;SDS011;9213;50.858;3.964;2023-02-15T12:21:49;40.50;;;28.50;;
18176;SDS011;9213;50.858;3.964;2023-02-15T12:24:19;40.27;;;28.30;;
18176;SDS011;9213;50.858;3.964;2023-02-15T12:26:55;41.53;;;28.10;;
18176;SDS011;9213;50.858;3.964;2023-02-15T12:29:26;41.17;;;28.53;;
18176;SDS011;9213;50.858;3.964;2023-02-15T12:31:56;44.03;;;29.03;;
18176;SDS011;9213;50.858;3.964;2023-02-15T12:34:25;45.70;;;29.07;;
18176;SDS011;9213;50.858;3.964;2023-02-15T12:36:56;41.83;;;28.60;;
18176;SDS011;9213;50.858;3.964;2023-02-15T12:39:27;44.17;;;28.03;;
18176;SDS011;9213;50.858;3.964;2023-02-15T12:42:02;42.97;;;27.27;;
18176;SDS011;9213;50.858;3.964;2023-02-15T12:44:31;50.83;;;30.40;;
18176;SDS011;9213;50.858;3.964;2023-02-15T12:47:02;40.87;;;27.13;;
18176;SDS011;9213;50.858;3.964;2023-02-15T12:49:30;41.43;;;27.00;;
18176;SDS011;9213;50.858;3.964;2023-02-15T12:51:59;40.60;;;27.60;;
18176;SDS011;9213;50.858;3.964;2023-02-15T12:54:33;41.73;;;27.70;;
18176;SDS011;9213;50.858;3.964;2023-02-15T12:57:14;42.07;;;28.37;;
18176;SDS011;9213;50.858;3.964;2023-02-15T12:59:48;39.57;;;27.90;;
18176;SDS011;9213;50.858;3.964;2023-02-15T13:02:19;43.87;;;28.53;;
18176;SDS011;9213;50.858;3.964;2023-02-15T13:04:49;42.93;;;26.80;;
18176;SDS011;9213;50.858;3.964;2023-02-15T13:07:17;45.03;;;28.53;;
18176;SDS011;9213;50.858;3.964;2023-02-15T13:09:45;39.47;;;27.33;;
18176;SDS011;9213;50.858;3.964;2023-02-15T13:12:16;46.63;;;27.70;;
18176;SDS011;9213;50.858;3.964;2023-02-15T13:14:47;54.10;;;27.33;;
18176;SDS011;9213;50.858;3.964;2023-02-15T13:17:19;39.67;;;26.67;;
18176;SDS011;9213;50.858;3.964;2023-02-15T13:19:50;44.07;;;27.63;;
18176;SDS011;9213;50.858;3.964;2023-02-15T13:22:20;37.60;;;26.03;;
18176;SDS011;9213;50.858;3.964;2023-02-15T13:24:51;36.43;;;25.60;;
18176;SDS011;9213;50.858;3.964;2023-02-15T13:27:22;41.27;;;28.13;;
18176;SDS011;9213;50.858;3.964;2023-02-15T13:29:56;39.43;;;26.70;;
18176;SDS011;9213;50.858;3.964;2023-02-15T13:32:28;43.07;;;27.97;;
18176;SDS011;9213;50.858;3.964;2023-02-15T13:34:57;39.23;;;27.97;;
18176;SDS011;9213;50.858;3.964;2023-02-15T13:40:25;34.17;;;24.60;;
18176;SDS011;9213;50.858;3.964;2023-02-15T13:42:59;41.93;;;27.07;;
18176;SDS011;9213;50.858;3.964;2023-02-15T13:45:33;41.90;;;27.30;;
18176;SDS011;9213;50.858;3.964;2023-02-15T13:48:10;40.47;;;27.23;;
18176;SDS011;9213;50.858;3.964;2023-02-15T13:50:50;37.60;;;25.73;;
18176;SDS011;9213;50.858;3.964;2023-02-15T13:53:35;35.60;;;25.00;;
18176;SDS011;9213;50.858;3.964;2023-02-15T13:56:25;40.60;;;27.03;;
18176;SDS011;9213;50.858;3.964;2023-02-15T13:59:09;38.83;;;26.03;;
18176;SDS011;9213;50.858;3.964;2023-02-15T14:01:55;38.87;;;25.97;;
18176;SDS011;9213;50.858;3.964;2023-02-15T14:07:30;36.23;;;25.90;;
18176;SDS011;9213;50.858;3.964;2023-02-15T14:10:29;37.37;;;25.80;;
18176;SDS011;9213;50.858;3.964;2023-02-15T14:13:10;35.47;;;25.13;;
18176;SDS011;9213;50.858;3.964;2023-02-15T14:16:05;40.10;;;26.37;;
18176;SDS011;9213;50.858;3.964;2023-02-15T14:18:40;37.13;;;26.10;;
18176;SDS011;9213;50.858;3.964;2023-02-15T14:21:14;40.13;;;26.30;;
18176;SDS011;9213;50.858;3.964;2023-02-15T14:23:48;38.40;;;25.77;;
18176;SDS011;9213;50.858;3.964;2023-02-15T14:26:29;41.13;;;28.07;;
18176;SDS011;9213;50.858;3.964;2023-02-15T14:29:05;38.07;;;26.70;;
18176;SDS011;9213;50.858;3.964;2023-02-15T14:31:43;42.57;;;26.27;;
18176;SDS011;9213;50.858;3.964;2023-02-15T14:34:17;40.23;;;26.43;;
18176;SDS011;9213;50.858;3.964;2023-02-15T14:36:48;41.67;;;27.10;;
18176;SDS011;9213;50.858;3.964;2023-02-15T14:39:18;37.67;;;27.30;;
18176;SDS011;9213;50.858;3.964;2023-02-15T14:42:15;43.07;;;27.50;;
18176;SDS011;9213;50.858;3.964;2023-02-15T14:44:47;43.93;;;27.63;;
18176;SDS011;9213;50.858;3.964;2023-02-15T14:47:22;41.77;;;26.67;;
18176;SDS011;9213;50.858;3.964;2023-02-15T14:49:55;40.13;;;27.20;;
18176;SDS011;9213;50.858;3.964;2023-02-15T14:52:23;40.10;;;29.00;;
18176;SDS011;9213;50.858;3.964;2023-02-15T14:54:59;40.20;;;26.97;;
18176;SDS011;9213;50.858;3.964;2023-02-15T14:57:27;39.77;;;27.60;;
18176;SDS011;9213;50.858;3.964;2023-02-15T14:59:59;40.23;;;28.40;;
18176;SDS011;9213;50.858;3.964;2023-02-15T15:02:40;38.37;;;27.80;;
18176;SDS011;9213;50.858;3.964;2023-02-15T15:05:12;43.07;;;27.97;;
18176;SDS011;9213;50.858;3.964;2023-02-15T15:07:46;40.03;;;27.37;;
18176;SDS011;9213;50.858;3.964;2023-02-15T15:18:55;40.33;;;27.00;;
18176;SDS011;9213;50.858;3.964;2023-02-15T15:39:50;41.43;;;27.53;;
18176;SDS011;9213;50.858;3.964;2023-02-15T15:42:43;40.13;;;27.73;;
18176;SDS011;9213;50.858;3.964;2023-02-15T15:45:23;41.10;;;28.03;;